sensor_id;sensor_type;location;lat;lon;timestamp;P1;durP1;ratioP1;P2;durP2;ratioP2
55372;SDS011;70018;47.838;16.490;2023-06-26T00:01:32;5.90;;;3.65;;
55372;SDS011;70018;47.838;16.490;2023-06-26T00:03:59;5.20;;;3.63;;
55372;SDS011;70018;47.838;16.490;2023-06-26T00:06:27;5.15;;;3.45;;
55372;SDS011;70018;47.838;16.490;2023-06-26T00:08:54;6.60;;;4.32;;
55372;SDS011;70018;47.838;16.490;2023-06-26T00:11:21;6.95;;;4.45;;
55372;SDS011;70018;47.838;16.490;2023-06-26T00:13:48;5.65;;;3.97;;
55372;SDS011;70018;47.838;16.490;2023-06-26T00:16:15;7.05;;;4.10;;
55372;SDS011;70018;47.838;16.490;2023-06-26T00:18:42;6.32;;;4.60;;
55372;SDS011;70018;47.838;16.490;2023-06-26T00:21:08;9.45;;;3.90;;
55372;SDS011;70018;47.838;16.490;2023-06-26T00:23:35;11.52;;;4.43;;
55372;SDS011;70018;47.838;16.490;2023-06-26T00:26:05;6.43;;;4.32;;
55372;SDS011;70018;47.838;16.490;2023-06-26T00:28:32;7.40;;;4.60;;
55372;SDS011;70018;47.838;16.490;2023-06-26T00:30:58;5.95;;;3.63;;
55372;SDS011;70018;47.838;16.490;2023-06-26T00:33:25;8.07;;;3.85;;
55372;SDS011;70018;47.838;16.490;2023-06-26T00:35:52;9.00;;;4.18;;
55372;SDS011;70018;47.838;16.490;2023-06-26T00:38:18;6.82;;;3.95;;
55372;SDS011;70018;47.838;16.490;2023-06-26T00:40:45;6.45;;;4.07;;
55372;SDS011;70018;47.838;16.490;2023-06-26T00:43:12;6.43;;;4.20;;
55372;SDS011;70018;47.838;16.490;2023-06-26T00:45:38;6.35;;;3.85;;
55372;SDS011;70018;47.838;16.490;2023-06-26T00:48:09;5.65;;;3.88;;
55372;SDS011;70018;47.838;16.490;2023-06-26T00:50:38;5.68;;;3.80;;
55372;SDS011;70018;47.838;16.490;2023-06-26T00:53:06;6.95;;;4.22;;
55372;SDS011;70018;47.838;16.490;2023-06-26T00:55:32;8.35;;;4.72;;
55372;SDS011;70018;47.838;16.490;2023-06-26T00:57:59;6.22;;;3.53;;
55372;SDS011;70018;47.838;16.490;2023-06-26T01:00:26;5.95;;;3.50;;
55372;SDS011;70018;47.838;16.490;2023-06-26T01:02:53;6.20;;;3.97;;
55372;SDS011;70018;47.838;16.490;2023-06-26T01:05:19;6.82;;;4.30;;
55372;SDS011;70018;47.838;16.490;2023-06-26T01:07:49;6.28;;;3.97;;
55372;SDS011;70018;47.838;16.490;2023-06-26T01:10:18;8.07;;;3.95;;
55372;SDS011;70018;47.838;16.490;2023-06-26T01:12:45;7.47;;;4.65;;
55372;SDS011;70018;47.838;16.490;2023-06-26T01:15:12;5.63;;;3.90;;
55372;SDS011;70018;47.838;16.490;2023-06-26T01:17:38;4.60;;;3.35;;
55372;SDS011;70018;47.838;16.490;2023-06-26T01:20:06;6.25;;;4.22;;
55372;SDS011;70018;47.838;16.490;2023-06-26T01:22:37;8.13;;;4.60;;
55372;SDS011;70018;47.838;16.490;2023-06-26T01:25:13;6.40;;;3.60;;
55372;SDS011;70018;47.838;16.490;2023-06-26T01:28:06;7.47;;;4.47;;
55372;SDS011;70018;47.838;16.490;2023-06-26T01:30:34;5.13;;;3.55;;
55372;SDS011;70018;47.838;16.490;2023-06-26T01:33:12;7.25;;;3.78;;
55372;SDS011;70018;47.838;16.490;2023-06-26T01:35:40;6.78;;;4.00;;
55372;SDS011;70018;47.838;16.490;2023-06-26T01:40:43;5.78;;;4.22;;
55372;SDS011;70018;47.838;16.490;2023-06-26T01:45:54;7.10;;;4.15;;
55372;SDS011;70018;47.838;16.490;2023-06-26T01:48:30;6.10;;;3.63;;
55372;SDS011;70018;47.838;16.490;2023-06-26T01:51:01;6.40;;;3.47;;
55372;SDS011;70018;47.838;16.490;2023-06-26T01:53:32;6.40;;;4.10;;
55372;SDS011;70018;47.838;16.490;2023-06-26T01:56:07;6.43;;;3.00;;
55372;SDS011;70018;47.838;16.490;2023-06-26T01:58:40;6.28;;;3.47;;
55372;SDS011;70018;47.838;16.490;2023-06-26T02:01:11;5.32;;;3.60;;
55372;SDS011;70018;47.838;16.490;2023-06-26T02:03:38;5.13;;;3.38;;
55372;SDS011;70018;47.838;16.490;2023-06-26T02:06:05;7.28;;;3.80;;
55372;SDS011;70018;47.838;16.490;2023-06-26T02:08:32;5.45;;;2.70;;
55372;SDS011;70018;47.838;16.490;2023-06-26T02:10:58;11.25;;;3.88;;
55372;SDS011;70018;47.838;16.490;2023-06-26T02:13:25;4.93;;;3.50;;
55372;SDS011;70018;47.838;16.490;2023-06-26T02:15:52;9.63;;;3.60;;
55372;SDS011;70018;47.838;16.490;2023-06-26T02:18:18;4.28;;;2.90;;
55372;SDS011;70018;47.838;16.490;2023-06-26T02:20:47;2.50;;;1.67;;
55372;SDS011;70018;47.838;16.490;2023-06-26T02:23:14;2.50;;;1.70;;
55372;SDS011;70018;47.838;16.490;2023-06-26T02:25:41;1.92;;;1.33;;
55372;SDS011;70018;47.838;16.490;2023-06-26T02:28:07;2.38;;;1.30;;
55372;SDS011;70018;47.838;16.490;2023-06-26T02:30:34;4.68;;;2.40;;
55372;SDS011;70018;47.838;16.490;2023-06-26T02:33:01;5.60;;;2.38;;
55372;SDS011;70018;47.838;16.490;2023-06-26T02:35:28;2.72;;;1.42;;
55372;SDS011;70018;47.838;16.490;2023-06-26T02:37:54;2.72;;;1.55;;
55372;SDS011;70018;47.838;16.490;2023-06-26T02:40:21;3.15;;;2.00;;
55372;SDS011;70018;47.838;16.490;2023-06-26T02:42:48;2.40;;;1.42;;
55372;SDS011;70018;47.838;16.490;2023-06-26T02:45:14;3.30;;;1.95;;
55372;SDS011;70018;47.838;16.490;2023-06-26T02:47:41;6.57;;;3.17;;
55372;SDS011;70018;47.838;16.490;2023-06-26T02:50:08;5.43;;;3.22;;
55372;SDS011;70018;47.838;16.490;2023-06-26T02:52:35;5.20;;;3.50;;
55372;SDS011;70018;47.838;16.490;2023-06-26T02:55:01;7.15;;;4.18;;
55372;SDS011;70018;47.838;16.490;2023-06-26T02:57:29;6.50;;;3.95;;
55372;SDS011;70018;47.838;16.490;2023-06-26T02:59:56;5.30;;;4.00;;
55372;SDS011;70018;47.838;16.490;2023-06-26T03:02:22;4.90;;;3.47;;
55372;SDS011;70018;47.838;16.490;2023-06-26T03:04:49;5.40;;;3.72;;
55372;SDS011;70018;47.838;16.490;2023-06-26T03:07:16;6.78;;;4.35;;
55372;SDS011;70018;47.838;16.490;2023-06-26T03:09:42;7.28;;;4.10;;
55372;SDS011;70018;47.838;16.490;2023-06-26T03:12:09;6.22;;;4.38;;
55372;SDS011;70018;47.838;16.490;2023-06-26T03:14:36;7.40;;;3.92;;
55372;SDS011;70018;47.838;16.490;2023-06-26T03:17:02;5.90;;;3.95;;
55372;SDS011;70018;47.838;16.490;2023-06-26T03:19:30;4.78;;;3.20;;
55372;SDS011;70018;47.838;16.490;2023-06-26T03:21:56;6.93;;;4.28;;
55372;SDS011;70018;47.838;16.490;2023-06-26T03:24:23;6.45;;;3.47;;
55372;SDS011;70018;47.838;16.490;2023-06-26T03:26:50;6.38;;;3.28;;
55372;SDS011;70018;47.838;16.490;2023-06-26T03:29:17;6.65;;;3.63;;
55372;SDS011;70018;47.838;16.490;2023-06-26T03:31:44;6.70;;;3.72;;
55372;SDS011;70018;47.838;16.490;2023-06-26T03:34:11;5.70;;;3.80;;
55372;SDS011;70018;47.838;16.490;2023-06-26T03:36:37;6.05;;;4.50;;
55372;SDS011;70018;47.838;16.490;2023-06-26T03:39:04;4.90;;;3.42;;
55372;SDS011;70018;47.838;16.490;2023-06-26T03:41:31;7.70;;;3.83;;
55372;SDS011;70018;47.838;16.490;2023-06-26T03:43:57;9.18;;;4.95;;
55372;SDS011;70018;47.838;16.490;2023-06-26T03:46:26;9.77;;;4.43;;
55372;SDS011;70018;47.838;16.490;2023-06-26T03:48:53;6.28;;;3.80;;
55372;SDS011;70018;47.838;16.490;2023-06-26T03:51:20;8.73;;;4.53;;
55372;SDS011;70018;47.838;16.490;2023-06-26T03:53:46;6.43;;;4.22;;
55372;SDS011;70018;47.838;16.490;2023-06-26T03:56:13;5.78;;;4.25;;
55372;SDS011;70018;47.838;16.490;2023-06-26T03:58:40;6.43;;;4.03;;
55372;SDS011;70018;47.838;16.490;2023-06-26T04:01:06;7.13;;;3.97;;
55372;SDS011;70018;47.838;16.490;2023-06-26T04:03:33;5.18;;;3.70;;
55372;SDS011;70018;47.838;16.490;2023-06-26T04:06:00;5.90;;;4.40;;
55372;SDS011;70018;47.838;16.490;2023-06-26T04:08:26;7.53;;;4.32;;
55372;SDS011;70018;47.838;16.490;2023-06-26T04:10:53;5.03;;;3.65;;
55372;SDS011;70018;47.838;16.490;2023-06-26T04:13:21;7.57;;;3.58;;
55372;SDS011;70018;47.838;16.490;2023-06-26T04:15:48;5.18;;;3.13;;
55372;SDS011;70018;47.838;16.490;2023-06-26T04:18:14;6.65;;;3.28;;
55372;SDS011;70018;47.838;16.490;2023-06-26T04:20:42;4.40;;;3.00;;
55372;SDS011;70018;47.838;16.490;2023-06-26T04:23:34;3.47;;;2.30;;
55372;SDS011;70018;47.838;16.490;2023-06-26T04:26:02;5.95;;;2.55;;
55372;SDS011;70018;47.838;16.490;2023-06-26T04:28:29;3.35;;;2.17;;
55372;SDS011;70018;47.838;16.490;2023-06-26T04:30:55;4.32;;;2.08;;
55372;SDS011;70018;47.838;16.490;2023-06-26T04:33:22;3.63;;;2.05;;
55372;SDS011;70018;47.838;16.490;2023-06-26T04:35:49;2.53;;;1.48;;
55372;SDS011;70018;47.838;16.490;2023-06-26T04:38:16;3.00;;;1.50;;
55372;SDS011;70018;47.838;16.490;2023-06-26T04:40:43;2.22;;;1.38;;
55372;SDS011;70018;47.838;16.490;2023-06-26T04:43:09;1.63;;;1.20;;
55372;SDS011;70018;47.838;16.490;2023-06-26T04:45:36;3.08;;;1.08;;
55372;SDS011;70018;47.838;16.490;2023-06-26T04:48:03;3.10;;;1.70;;
55372;SDS011;70018;47.838;16.490;2023-06-26T04:50:30;1.60;;;0.80;;
55372;SDS011;70018;47.838;16.490;2023-06-26T04:52:57;2.50;;;1.52;;
55372;SDS011;70018;47.838;16.490;2023-06-26T04:55:24;2.28;;;1.30;;
55372;SDS011;70018;47.838;16.490;2023-06-26T04:57:51;3.58;;;1.98;;
55372;SDS011;70018;47.838;16.490;2023-06-26T05:00:18;2.58;;;1.52;;
55372;SDS011;70018;47.838;16.490;2023-06-26T05:02:45;2.45;;;1.42;;
55372;SDS011;70018;47.838;16.490;2023-06-26T05:05:12;2.28;;;1.40;;
55372;SDS011;70018;47.838;16.490;2023-06-26T05:07:38;2.10;;;1.30;;
55372;SDS011;70018;47.838;16.490;2023-06-26T05:10:07;3.42;;;1.70;;
55372;SDS011;70018;47.838;16.490;2023-06-26T05:12:34;3.15;;;1.67;;
55372;SDS011;70018;47.838;16.490;2023-06-26T05:15:01;3.97;;;1.75;;
55372;SDS011;70018;47.838;16.490;2023-06-26T05:17:28;3.78;;;1.40;;
55372;SDS011;70018;47.838;16.490;2023-06-26T05:19:55;2.67;;;1.13;;
55372;SDS011;70018;47.838;16.490;2023-06-26T05:22:21;4.53;;;2.25;;
55372;SDS011;70018;47.838;16.490;2023-06-26T05:24:48;3.88;;;2.20;;
55372;SDS011;70018;47.838;16.490;2023-06-26T05:27:17;2.92;;;1.98;;
55372;SDS011;70018;47.838;16.490;2023-06-26T05:29:48;2.72;;;1.60;;
55372;SDS011;70018;47.838;16.490;2023-06-26T05:32:16;4.25;;;2.22;;
55372;SDS011;70018;47.838;16.490;2023-06-26T05:34:46;3.90;;;2.20;;
55372;SDS011;70018;47.838;16.490;2023-06-26T05:37:18;3.42;;;2.05;;
55372;SDS011;70018;47.838;16.490;2023-06-26T05:39:47;4.78;;;2.92;;
55372;SDS011;70018;47.838;16.490;2023-06-26T05:42:14;3.13;;;1.95;;
55372;SDS011;70018;47.838;16.490;2023-06-26T05:44:41;6.13;;;2.95;;
55372;SDS011;70018;47.838;16.490;2023-06-26T05:47:08;3.75;;;2.40;;
55372;SDS011;70018;47.838;16.490;2023-06-26T05:49:34;2.90;;;1.95;;
55372;SDS011;70018;47.838;16.490;2023-06-26T05:52:02;5.03;;;2.65;;
55372;SDS011;70018;47.838;16.490;2023-06-26T05:54:29;4.78;;;3.05;;
55372;SDS011;70018;47.838;16.490;2023-06-26T05:56:57;7.03;;;2.92;;
55372;SDS011;70018;47.838;16.490;2023-06-26T05:59:27;6.65;;;2.50;;
55372;SDS011;70018;47.838;16.490;2023-06-26T06:01:57;4.38;;;2.95;;
55372;SDS011;70018;47.838;16.490;2023-06-26T06:04:24;4.55;;;2.65;;
55372;SDS011;70018;47.838;16.490;2023-06-26T06:06:51;5.32;;;2.92;;
55372;SDS011;70018;47.838;16.490;2023-06-26T06:09:18;4.03;;;2.45;;
55372;SDS011;70018;47.838;16.490;2023-06-26T06:11:44;6.03;;;3.30;;
55372;SDS011;70018;47.838;16.490;2023-06-26T06:14:11;4.07;;;2.40;;
55372;SDS011;70018;47.838;16.490;2023-06-26T06:16:38;5.10;;;2.38;;
55372;SDS011;70018;47.838;16.490;2023-06-26T06:19:04;3.72;;;2.28;;
55372;SDS011;70018;47.838;16.490;2023-06-26T06:21:33;4.28;;;1.77;;
55372;SDS011;70018;47.838;16.490;2023-06-26T06:23:59;2.08;;;1.50;;
55372;SDS011;70018;47.838;16.490;2023-06-26T06:26:27;1.98;;;1.20;;
55372;SDS011;70018;47.838;16.490;2023-06-26T06:28:54;2.20;;;1.42;;
55372;SDS011;70018;47.838;16.490;2023-06-26T06:31:21;3.22;;;1.63;;
55372;SDS011;70018;47.838;16.490;2023-06-26T06:33:47;5.07;;;1.90;;
55372;SDS011;70018;47.838;16.490;2023-06-26T06:36:14;2.15;;;1.00;;
55372;SDS011;70018;47.838;16.490;2023-06-26T06:38:44;2.88;;;1.30;;
55372;SDS011;70018;47.838;16.490;2023-06-26T06:41:10;4.20;;;1.63;;
55372;SDS011;70018;47.838;16.490;2023-06-26T06:43:38;2.85;;;1.35;;
55372;SDS011;70018;47.838;16.490;2023-06-26T06:46:04;2.15;;;1.15;;
55372;SDS011;70018;47.838;16.490;2023-06-26T06:48:31;2.38;;;1.25;;
55372;SDS011;70018;47.838;16.490;2023-06-26T06:50:58;1.67;;;1.13;;
55372;SDS011;70018;47.838;16.490;2023-06-26T06:53:24;4.82;;;1.13;;
55372;SDS011;70018;47.838;16.490;2023-06-26T06:55:51;3.05;;;1.33;;
55372;SDS011;70018;47.838;16.490;2023-06-26T06:58:18;1.88;;;1.25;;
55372;SDS011;70018;47.838;16.490;2023-06-26T07:00:49;2.15;;;1.30;;
55372;SDS011;70018;47.838;16.490;2023-06-26T07:03:17;1.65;;;1.00;;
55372;SDS011;70018;47.838;16.490;2023-06-26T07:05:44;2.38;;;1.77;;
55372;SDS011;70018;47.838;16.490;2023-06-26T07:08:10;3.58;;;1.50;;
55372;SDS011;70018;47.838;16.490;2023-06-26T07:10:37;2.80;;;1.15;;
55372;SDS011;70018;47.838;16.490;2023-06-26T07:13:05;3.08;;;1.33;;
55372;SDS011;70018;47.838;16.490;2023-06-26T07:15:32;1.90;;;1.25;;
55372;SDS011;70018;47.838;16.490;2023-06-26T07:17:59;2.78;;;1.67;;
55372;SDS011;70018;47.838;16.490;2023-06-26T07:20:26;4.53;;;1.25;;
55372;SDS011;70018;47.838;16.490;2023-06-26T07:22:52;2.25;;;1.10;;
55372;SDS011;70018;47.838;16.490;2023-06-26T07:25:19;2.20;;;1.30;;
55372;SDS011;70018;47.838;16.490;2023-06-26T07:27:46;1.75;;;1.20;;
55372;SDS011;70018;47.838;16.490;2023-06-26T07:30:12;2.22;;;1.20;;
55372;SDS011;70018;47.838;16.490;2023-06-26T07:32:39;2.30;;;1.00;;
55372;SDS011;70018;47.838;16.490;2023-06-26T07:35:09;1.75;;;1.13;;
55372;SDS011;70018;47.838;16.490;2023-06-26T07:37:35;4.00;;;2.22;;
55372;SDS011;70018;47.838;16.490;2023-06-26T07:40:02;2.72;;;2.08;;
55372;SDS011;70018;47.838;16.490;2023-06-26T07:42:29;2.35;;;1.70;;
55372;SDS011;70018;47.838;16.490;2023-06-26T07:44:56;3.45;;;1.35;;
55372;SDS011;70018;47.838;16.490;2023-06-26T07:47:23;2.95;;;1.90;;
55372;SDS011;70018;47.838;16.490;2023-06-26T07:49:49;3.97;;;2.08;;
55372;SDS011;70018;47.838;16.490;2023-06-26T07:52:17;3.83;;;1.88;;
55372;SDS011;70018;47.838;16.490;2023-06-26T07:54:44;2.63;;;1.73;;
55372;SDS011;70018;47.838;16.490;2023-06-26T07:57:11;2.20;;;1.40;;
55372;SDS011;70018;47.838;16.490;2023-06-26T07:59:39;2.40;;;1.80;;
55372;SDS011;70018;47.838;16.490;2023-06-26T08:02:06;1.70;;;1.23;;
55372;SDS011;70018;47.838;16.490;2023-06-26T08:04:33;1.90;;;1.25;;
55372;SDS011;70018;47.838;16.490;2023-06-26T08:07:00;2.65;;;1.42;;
55372;SDS011;70018;47.838;16.490;2023-06-26T08:09:29;2.28;;;1.48;;
55372;SDS011;70018;47.838;16.490;2023-06-26T08:11:56;2.38;;;1.30;;
55372;SDS011;70018;47.838;16.490;2023-06-26T08:14:23;2.80;;;1.50;;
55372;SDS011;70018;47.838;16.490;2023-06-26T08:16:50;2.53;;;1.80;;
55372;SDS011;70018;47.838;16.490;2023-06-26T08:19:17;2.25;;;1.48;;
55372;SDS011;70018;47.838;16.490;2023-06-26T08:21:44;3.30;;;2.17;;
55372;SDS011;70018;47.838;16.490;2023-06-26T08:24:12;3.45;;;2.15;;
55372;SDS011;70018;47.838;16.490;2023-06-26T08:26:44;2.17;;;1.60;;
55372;SDS011;70018;47.838;16.490;2023-06-26T08:29:12;2.50;;;1.70;;
55372;SDS011;70018;47.838;16.490;2023-06-26T08:31:39;2.90;;;1.92;;
55372;SDS011;70018;47.838;16.490;2023-06-26T08:34:07;1.90;;;1.10;;
55372;SDS011;70018;47.838;16.490;2023-06-26T08:36:34;2.75;;;1.83;;
55372;SDS011;70018;47.838;16.490;2023-06-26T08:39:01;1.80;;;1.38;;
55372;SDS011;70018;47.838;16.490;2023-06-26T08:41:29;2.67;;;1.98;;
55372;SDS011;70018;47.838;16.490;2023-06-26T08:43:56;8.52;;;1.95;;
55372;SDS011;70018;47.838;16.490;2023-06-26T08:46:22;1.70;;;1.33;;
55372;SDS011;70018;47.838;16.490;2023-06-26T08:48:53;2.00;;;1.42;;
55372;SDS011;70018;47.838;16.490;2023-06-26T08:51:23;3.70;;;2.05;;
55372;SDS011;70018;47.838;16.490;2023-06-26T08:53:58;1.25;;;0.95;;
55372;SDS011;70018;47.838;16.490;2023-06-26T08:56:35;2.43;;;1.50;;
55372;SDS011;70018;47.838;16.490;2023-06-26T08:59:04;2.53;;;1.45;;
55372;SDS011;70018;47.838;16.490;2023-06-26T09:01:32;2.80;;;2.10;;
55372;SDS011;70018;47.838;16.490;2023-06-26T09:03:59;2.92;;;1.70;;
55372;SDS011;70018;47.838;16.490;2023-06-26T09:06:25;3.60;;;2.40;;
55372;SDS011;70018;47.838;16.490;2023-06-26T09:08:52;2.78;;;1.90;;
55372;SDS011;70018;47.838;16.490;2023-06-26T09:11:19;3.85;;;1.70;;
55372;SDS011;70018;47.838;16.490;2023-06-26T09:13:46;2.25;;;1.30;;
55372;SDS011;70018;47.838;16.490;2023-06-26T09:16:14;2.60;;;1.58;;
55372;SDS011;70018;47.838;16.490;2023-06-26T09:18:41;3.53;;;1.90;;
55372;SDS011;70018;47.838;16.490;2023-06-26T09:21:09;7.32;;;2.80;;
55372;SDS011;70018;47.838;16.490;2023-06-26T09:23:36;3.63;;;2.00;;
55372;SDS011;70018;47.838;16.490;2023-06-26T09:26:05;2.47;;;1.90;;
55372;SDS011;70018;47.838;16.490;2023-06-26T09:28:32;3.58;;;2.42;;
55372;SDS011;70018;47.838;16.490;2023-06-26T09:31:01;3.08;;;2.10;;
55372;SDS011;70018;47.838;16.490;2023-06-26T09:33:37;3.33;;;2.20;;
55372;SDS011;70018;47.838;16.490;2023-06-26T09:36:08;3.33;;;2.05;;
55372;SDS011;70018;47.838;16.490;2023-06-26T09:38:38;3.00;;;2.08;;
55372;SDS011;70018;47.838;16.490;2023-06-26T09:41:04;3.75;;;2.40;;
55372;SDS011;70018;47.838;16.490;2023-06-26T09:43:31;3.55;;;1.70;;
55372;SDS011;70018;47.838;16.490;2023-06-26T09:46:00;6.88;;;2.35;;
55372;SDS011;70018;47.838;16.490;2023-06-26T09:48:28;3.53;;;1.88;;
55372;SDS011;70018;47.838;16.490;2023-06-26T09:50:55;3.03;;;1.98;;
55372;SDS011;70018;47.838;16.490;2023-06-26T09:53:39;3.85;;;2.33;;
55372;SDS011;70018;47.838;16.490;2023-06-26T09:56:15;2.08;;;1.65;;
55372;SDS011;70018;47.838;16.490;2023-06-26T09:58:43;3.72;;;2.15;;
55372;SDS011;70018;47.838;16.490;2023-06-26T10:01:10;3.35;;;2.00;;
55372;SDS011;70018;47.838;16.490;2023-06-26T10:03:37;4.53;;;2.08;;
55372;SDS011;70018;47.838;16.490;2023-06-26T10:06:04;3.25;;;2.13;;
55372;SDS011;70018;47.838;16.490;2023-06-26T10:08:32;2.50;;;1.45;;
55372;SDS011;70018;47.838;16.490;2023-06-26T10:11:00;2.20;;;1.70;;
55372;SDS011;70018;47.838;16.490;2023-06-26T10:13:27;3.38;;;1.75;;
55372;SDS011;70018;47.838;16.490;2023-06-26T10:16:01;3.90;;;2.15;;
55372;SDS011;70018;47.838;16.490;2023-06-26T10:18:28;3.15;;;1.98;;
55372;SDS011;70018;47.838;16.490;2023-06-26T10:20:58;2.42;;;1.67;;
55372;SDS011;70018;47.838;16.490;2023-06-26T10:23:27;3.22;;;2.15;;
55372;SDS011;70018;47.838;16.490;2023-06-26T10:25:55;3.45;;;2.45;;
55372;SDS011;70018;47.838;16.490;2023-06-26T10:28:28;4.15;;;2.15;;
55372;SDS011;70018;47.838;16.490;2023-06-26T10:30:58;3.42;;;2.20;;
55372;SDS011;70018;47.838;16.490;2023-06-26T10:33:26;2.72;;;1.88;;
55372;SDS011;70018;47.838;16.490;2023-06-26T10:35:53;2.58;;;1.55;;
55372;SDS011;70018;47.838;16.490;2023-06-26T10:38:55;2.65;;;1.85;;
55372;SDS011;70018;47.838;16.490;2023-06-26T10:41:24;2.65;;;1.83;;
55372;SDS011;70018;47.838;16.490;2023-06-26T10:44:05;5.47;;;1.77;;
55372;SDS011;70018;47.838;16.490;2023-06-26T10:46:33;5.63;;;1.88;;
55372;SDS011;70018;47.838;16.490;2023-06-26T10:49:14;3.30;;;2.17;;
55372;SDS011;70018;47.838;16.490;2023-06-26T10:51:48;3.35;;;1.95;;
55372;SDS011;70018;47.838;16.490;2023-06-26T10:54:16;2.85;;;1.90;;
55372;SDS011;70018;47.838;16.490;2023-06-26T10:56:47;2.25;;;1.20;;
55372;SDS011;70018;47.838;16.490;2023-06-26T11:01:45;3.63;;;2.40;;
55372;SDS011;70018;47.838;16.490;2023-06-26T11:04:21;4.30;;;2.45;;
55372;SDS011;70018;47.838;16.490;2023-06-26T11:07:20;2.58;;;2.20;;
55372;SDS011;70018;47.838;16.490;2023-06-26T11:09:54;2.75;;;1.58;;
55372;SDS011;70018;47.838;16.490;2023-06-26T11:17:35;3.53;;;2.13;;
55372;SDS011;70018;47.838;16.490;2023-06-26T11:20:06;2.88;;;2.10;;
55372;SDS011;70018;47.838;16.490;2023-06-26T11:22:35;3.70;;;1.88;;
55372;SDS011;70018;47.838;16.490;2023-06-26T11:25:05;2.30;;;1.70;;
55372;SDS011;70018;47.838;16.490;2023-06-26T11:27:39;4.55;;;2.03;;
55372;SDS011;70018;47.838;16.490;2023-06-26T11:30:07;4.30;;;2.03;;
55372;SDS011;70018;47.838;16.490;2023-06-26T11:32:38;3.10;;;2.08;;
55372;SDS011;70018;47.838;16.490;2023-06-26T11:35:05;3.15;;;2.15;;
55372;SDS011;70018;47.838;16.490;2023-06-26T11:37:33;3.55;;;2.17;;
55372;SDS011;70018;47.838;16.490;2023-06-26T11:40:15;1.92;;;1.25;;
55372;SDS011;70018;47.838;16.490;2023-06-26T11:42:44;3.53;;;2.45;;
55372;SDS011;70018;47.838;16.490;2023-06-26T11:45:11;2.78;;;1.95;;
55372;SDS011;70018;47.838;16.490;2023-06-26T11:47:38;6.28;;;2.05;;
55372;SDS011;70018;47.838;16.490;2023-06-26T11:50:05;2.63;;;2.10;;
55372;SDS011;70018;47.838;16.490;2023-06-26T11:52:32;6.30;;;2.17;;
55372;SDS011;70018;47.838;16.490;2023-06-26T11:54:59;2.58;;;1.70;;
55372;SDS011;70018;47.838;16.490;2023-06-26T11:57:26;2.65;;;1.88;;
55372;SDS011;70018;47.838;16.490;2023-06-26T11:59:52;3.92;;;1.70;;
55372;SDS011;70018;47.838;16.490;2023-06-26T12:02:20;2.63;;;1.67;;
55372;SDS011;70018;47.838;16.490;2023-06-26T12:04:47;3.40;;;1.90;;
55372;SDS011;70018;47.838;16.490;2023-06-26T12:07:15;2.83;;;1.92;;
55372;SDS011;70018;47.838;16.490;2023-06-26T12:09:44;2.03;;;1.30;;
55372;SDS011;70018;47.838;16.490;2023-06-26T12:12:14;2.55;;;1.80;;
55372;SDS011;70018;47.838;16.490;2023-06-26T12:14:42;2.60;;;1.50;;
55372;SDS011;70018;47.838;16.490;2023-06-26T12:17:11;3.08;;;2.28;;
55372;SDS011;70018;47.838;16.490;2023-06-26T12:19:43;2.70;;;1.90;;
55372;SDS011;70018;47.838;16.490;2023-06-26T12:22:11;1.90;;;1.48;;
55372;SDS011;70018;47.838;16.490;2023-06-26T12:24:38;1.65;;;1.33;;
55372;SDS011;70018;47.838;16.490;2023-06-26T12:27:13;3.35;;;2.47;;
55372;SDS011;70018;47.838;16.490;2023-06-26T12:29:45;2.47;;;1.73;;
55372;SDS011;70018;47.838;16.490;2023-06-26T12:32:16;2.63;;;1.65;;
55372;SDS011;70018;47.838;16.490;2023-06-26T12:34:46;2.85;;;1.77;;
55372;SDS011;70018;47.838;16.490;2023-06-26T12:37:16;2.25;;;1.63;;
55372;SDS011;70018;47.838;16.490;2023-06-26T12:39:50;2.08;;;1.30;;
55372;SDS011;70018;47.838;16.490;2023-06-26T12:42:21;2.85;;;1.85;;
55372;SDS011;70018;47.838;16.490;2023-06-26T12:44:50;2.78;;;1.77;;
55372;SDS011;70018;47.838;16.490;2023-06-26T12:47:17;1.83;;;1.38;;
55372;SDS011;70018;47.838;16.490;2023-06-26T12:49:49;1.98;;;1.38;;
55372;SDS011;70018;47.838;16.490;2023-06-26T12:52:16;2.40;;;1.80;;
55372;SDS011;70018;47.838;16.490;2023-06-26T12:54:45;2.60;;;1.70;;
55372;SDS011;70018;47.838;16.490;2023-06-26T12:57:13;3.33;;;1.50;;
55372;SDS011;70018;47.838;16.490;2023-06-26T12:59:42;2.15;;;1.25;;
55372;SDS011;70018;47.838;16.490;2023-06-26T13:02:09;1.77;;;1.05;;
55372;SDS011;70018;47.838;16.490;2023-06-26T13:04:40;1.90;;;1.48;;
55372;SDS011;70018;47.838;16.490;2023-06-26T13:07:07;3.45;;;2.20;;
55372;SDS011;70018;47.838;16.490;2023-06-26T13:09:34;2.05;;;1.35;;
55372;SDS011;70018;47.838;16.490;2023-06-26T13:12:03;2.20;;;1.50;;
55372;SDS011;70018;47.838;16.490;2023-06-26T13:14:31;1.88;;;1.20;;
55372;SDS011;70018;47.838;16.490;2023-06-26T13:17:02;1.70;;;1.20;;
55372;SDS011;70018;47.838;16.490;2023-06-26T13:21:58;2.03;;;1.40;;
55372;SDS011;70018;47.838;16.490;2023-06-26T13:24:26;2.15;;;1.52;;
55372;SDS011;70018;47.838;16.490;2023-06-26T13:26:53;3.40;;;2.30;;
55372;SDS011;70018;47.838;16.490;2023-06-26T13:29:20;2.35;;;1.65;;
55372;SDS011;70018;47.838;16.490;2023-06-26T13:31:46;3.08;;;1.88;;
55372;SDS011;70018;47.838;16.490;2023-06-26T13:34:22;2.50;;;1.80;;
55372;SDS011;70018;47.838;16.490;2023-06-26T13:36:50;2.03;;;1.55;;
55372;SDS011;70018;47.838;16.490;2023-06-26T13:39:17;3.00;;;1.63;;
55372;SDS011;70018;47.838;16.490;2023-06-26T13:41:44;1.33;;;1.00;;
55372;SDS011;70018;47.838;16.490;2023-06-26T13:44:11;2.33;;;1.52;;
55372;SDS011;70018;47.838;16.490;2023-06-26T13:46:58;2.72;;;1.67;;
55372;SDS011;70018;47.838;16.490;2023-06-26T13:49:25;2.60;;;1.83;;
55372;SDS011;70018;47.838;16.490;2023-06-26T13:51:51;2.63;;;1.88;;
55372;SDS011;70018;47.838;16.490;2023-06-26T13:54:18;2.50;;;1.63;;
55372;SDS011;70018;47.838;16.490;2023-06-26T13:56:44;4.30;;;1.63;;
55372;SDS011;70018;47.838;16.490;2023-06-26T13:59:11;2.58;;;1.75;;
55372;SDS011;70018;47.838;16.490;2023-06-26T14:01:39;2.38;;;1.73;;
55372;SDS011;70018;47.838;16.490;2023-06-26T14:04:06;2.25;;;1.55;;
55372;SDS011;70018;47.838;16.490;2023-06-26T14:06:32;1.42;;;0.95;;
55372;SDS011;70018;47.838;16.490;2023-06-26T14:09:00;1.23;;;1.00;;
55372;SDS011;70018;47.838;16.490;2023-06-26T14:11:27;1.83;;;1.10;;
55372;SDS011;70018;47.838;16.490;2023-06-26T14:13:54;1.95;;;1.63;;
55372;SDS011;70018;47.838;16.490;2023-06-26T14:16:20;3.17;;;2.15;;
55372;SDS011;70018;47.838;16.490;2023-06-26T14:18:47;2.60;;;1.83;;
55372;SDS011;70018;47.838;16.490;2023-06-26T14:21:14;2.05;;;1.45;;
55372;SDS011;70018;47.838;16.490;2023-06-26T14:23:41;2.13;;;1.23;;
55372;SDS011;70018;47.838;16.490;2023-06-26T14:26:08;1.98;;;1.50;;
55372;SDS011;70018;47.838;16.490;2023-06-26T14:28:34;2.35;;;1.40;;
55372;SDS011;70018;47.838;16.490;2023-06-26T14:31:01;2.50;;;1.10;;
55372;SDS011;70018;47.838;16.490;2023-06-26T14:33:28;1.63;;;1.23;;
55372;SDS011;70018;47.838;16.490;2023-06-26T14:35:54;1.77;;;1.48;;
55372;SDS011;70018;47.838;16.490;2023-06-26T14:38:21;3.72;;;1.60;;
55372;SDS011;70018;47.838;16.490;2023-06-26T14:40:48;1.73;;;1.30;;
55372;SDS011;70018;47.838;16.490;2023-06-26T14:43:15;1.85;;;1.40;;
55372;SDS011;70018;47.838;16.490;2023-06-26T14:45:42;1.13;;;0.90;;
55372;SDS011;70018;47.838;16.490;2023-06-26T14:48:09;1.80;;;1.30;;
55372;SDS011;70018;47.838;16.490;2023-06-26T14:50:36;2.40;;;1.33;;
55372;SDS011;70018;47.838;16.490;2023-06-26T14:53:03;2.40;;;1.33;;
55372;SDS011;70018;47.838;16.490;2023-06-26T14:55:30;2.40;;;1.70;;